Terminal Aerodrome Forecast
Issued by NWS Charleston, WV

Current Version | Previous Version | Graphics & Text | Print | Product List | Glossary On
Versions: 1 2 3 4 5 6 7 8 9 10 11 12 13 14 15 16 17 18 19 20 21
000
FTUS41 KRLX 210853 AAA
TAFPKB
TAF AMD
KPKB 210853Z 2109/2206 00000KT 4SM BR SKC
     FM211100 00000KT 2SM BR SCT001
     FM211200 00000KT 5SM BR SKC
     FM211300 00000KT P6SM SKC
     FM211600 VRB03KT P6SM SCT050
     FM212300 00000KT P6SM SCT250=

USA.gov is the U.S. government's official web portal to all federal, state and local government web resources and services.